sensor_id;sensor_type;location;lat;lon;timestamp;pressure;altitude;pressure_sealevel;temperature;humidity
788;BME280;16074;42.708;23.312;2023-04-08T00:00:28;140002.47;;;7.01;79.13
788;BME280;16074;42.708;23.312;2023-04-08T00:02:56;140012.06;;;7.05;79.46
788;BME280;16074;42.708;23.312;2023-04-08T00:05:24;140007.25;;;7.03;80.08
788;BME280;16074;42.708;23.312;2023-04-08T00:07:53;139986.88;;;6.95;80.11
788;BME280;16074;42.708;23.312;2023-04-08T00:10:21;139995.25;;;6.98;80.39
788;BME280;16074;42.708;23.312;2023-04-08T00:12:51;140002.47;;;7.01;80.14
788;BME280;16074;42.708;23.312;2023-04-08T00:15:20;140016.88;;;7.07;81.77
788;BME280;16074;42.708;23.312;2023-04-08T00:17:49;140020.44;;;7.08;82.22
788;BME280;16074;42.708;23.312;2023-04-08T00:20:19;140020.44;;;7.08;82.83
788;BME280;16074;42.708;23.312;2023-04-08T00:22:48;140003.69;;;7.02;81.59
788;BME280;16074;42.708;23.312;2023-04-08T00:25:16;140018.09;;;7.07;81.62
788;BME280;16074;42.708;23.312;2023-04-08T00:27:44;140019.25;;;7.08;81.51
788;BME280;16074;42.708;23.312;2023-04-08T00:30:12;140007.25;;;7.03;81.21
788;BME280;16074;42.708;23.312;2023-04-08T00:32:45;140012.06;;;7.05;82.01
788;BME280;16074;42.708;23.312;2023-04-08T00:35:14;139994.06;;;6.98;81.86
788;BME280;16074;42.708;23.312;2023-04-08T00:37:42;140008.47;;;7.04;82.62
788;BME280;16074;42.708;23.312;2023-04-08T00:40:11;140008.47;;;7.04;82.51
788;BME280;16074;42.708;23.312;2023-04-08T00:42:39;140001.28;;;7.01;81.78
788;BME280;16074;42.708;23.312;2023-04-08T00:45:08;139977.28;;;6.91;81.58
788;BME280;16074;42.708;23.312;2023-04-08T00:47:37;139972.47;;;6.89;81.76
788;BME280;16074;42.708;23.312;2023-04-08T00:50:08;139961.66;;;6.84;82.29
788;BME280;16074;42.708;23.312;2023-04-08T00:52:37;139965.28;;;6.86;81.96
788;BME280;16074;42.708;23.312;2023-04-08T00:55:06;139940.09;;;6.75;82.88
788;BME280;16074;42.708;23.312;2023-04-08T00:57:34;139906.50;;;6.61;83.01
788;BME280;16074;42.708;23.312;2023-04-08T01:00:04;139932.91;;;6.72;82.48
788;BME280;16074;42.708;23.312;2023-04-08T01:02:38;139884.91;;;6.52;82.57
788;BME280;16074;42.708;23.312;2023-04-08T01:05:14;139895.66;;;6.57;82.14
788;BME280;16074;42.708;23.312;2023-04-08T01:07:46;139906.50;;;6.61;82.11
788;BME280;16074;42.708;23.312;2023-04-08T01:10:16;139900.47;;;6.59;82.60
788;BME280;16074;42.708;23.312;2023-04-08T01:12:49;139889.69;;;6.54;83.14
788;BME280;16074;42.708;23.312;2023-04-08T01:15:19;139877.69;;;6.49;82.76
788;BME280;16074;42.708;23.312;2023-04-08T01:17:49;139892.09;;;6.55;82.92
788;BME280;16074;42.708;23.312;2023-04-08T01:20:21;139858.50;;;6.41;84.49
788;BME280;16074;42.708;23.312;2023-04-08T01:23:00;139868.09;;;6.45;83.84
788;BME280;16074;42.708;23.312;2023-04-08T01:25:32;139877.69;;;6.49;84.29
788;BME280;16074;42.708;23.312;2023-04-08T01:28:05;139872.91;;;6.47;84.96
788;BME280;16074;42.708;23.312;2023-04-08T01:30:34;139881.31;;;6.51;85.05
788;BME280;16074;42.708;23.312;2023-04-08T01:33:04;139881.31;;;6.51;85.14
788;BME280;16074;42.708;23.312;2023-04-08T01:35:34;139866.91;;;6.45;85.61
788;BME280;16074;42.708;23.312;2023-04-08T01:38:04;139858.50;;;6.41;86.40
788;BME280;16074;42.708;23.312;2023-04-08T01:40:34;139869.31;;;6.46;83.98
788;BME280;16074;42.708;23.312;2023-04-08T01:43:07;139844.09;;;6.35;84.79
788;BME280;16074;42.708;23.312;2023-04-08T01:45:37;139858.50;;;6.41;85.29
788;BME280;16074;42.708;23.312;2023-04-08T01:48:06;139863.31;;;6.43;85.87
788;BME280;16074;42.708;23.312;2023-04-08T01:50:36;139865.69;;;6.44;85.97
788;BME280;16074;42.708;23.312;2023-04-08T01:53:07;139872.91;;;6.47;87.04
788;BME280;16074;42.708;23.312;2023-04-08T01:55:39;139881.31;;;6.51;85.95
788;BME280;16074;42.708;23.312;2023-04-08T01:58:11;139882.50;;;6.51;86.95
788;BME280;16074;42.708;23.312;2023-04-08T02:00:41;139876.53;;;6.49;87.03
788;BME280;16074;42.708;23.312;2023-04-08T02:03:13;139851.31;;;6.38;87.41
788;BME280;16074;42.708;23.312;2023-04-08T02:05:45;139846.50;;;6.36;87.22
788;BME280;16074;42.708;23.312;2023-04-08T02:08:13;139865.69;;;6.44;87.03
788;BME280;16074;42.708;23.312;2023-04-08T02:10:42;139875.28;;;6.48;87.31
788;BME280;16074;42.708;23.312;2023-04-08T02:13:12;139882.50;;;6.51;88.33
788;BME280;16074;42.708;23.312;2023-04-08T02:15:45;139842.94;;;6.35;87.73
788;BME280;16074;42.708;23.312;2023-04-08T02:18:24;139870.50;;;6.46;87.29
788;BME280;16074;42.708;23.312;2023-04-08T02:20:57;139864.53;;;6.44;87.79
788;BME280;16074;42.708;23.312;2023-04-08T02:23:28;139874.13;;;6.48;88.60
788;BME280;16074;42.708;23.312;2023-04-08T02:26:01;139876.53;;;6.49;88.69
788;BME280;16074;42.708;23.312;2023-04-08T02:28:33;139887.28;;;6.53;88.52
788;BME280;16074;42.708;23.312;2023-04-08T02:31:02;139892.09;;;6.55;89.09
788;BME280;16074;42.708;23.312;2023-04-08T02:33:33;139893.28;;;6.56;88.81
788;BME280;16074;42.708;23.312;2023-04-08T02:36:04;139902.88;;;6.60;89.70
788;BME280;16074;42.708;23.312;2023-04-08T02:38:34;139902.88;;;6.60;89.01
788;BME280;16074;42.708;23.312;2023-04-08T02:41:02;139911.28;;;6.63;88.62
788;BME280;16074;42.708;23.312;2023-04-08T02:43:30;139908.91;;;6.62;88.06
788;BME280;16074;42.708;23.312;2023-04-08T02:46:05;139907.66;;;6.62;88.66
788;BME280;16074;42.708;23.312;2023-04-08T02:48:35;139907.66;;;6.62;87.96
788;BME280;16074;42.708;23.312;2023-04-08T02:51:03;139908.91;;;6.62;85.98
788;BME280;16074;42.708;23.312;2023-04-08T02:53:32;139907.66;;;6.62;86.85
788;BME280;16074;42.708;23.312;2023-04-08T02:56:00;139907.66;;;6.62;87.39
788;BME280;16074;42.708;23.312;2023-04-08T02:58:28;139906.50;;;6.61;86.71
788;BME280;16074;42.708;23.312;2023-04-08T03:00:56;139912.47;;;6.64;86.49
788;BME280;16074;42.708;23.312;2023-04-08T03:03:26;139905.28;;;6.61;86.91
788;BME280;16074;42.708;23.312;2023-04-08T03:05:56;139910.06;;;6.63;87.08
788;BME280;16074;42.708;23.312;2023-04-08T03:08:25;139908.91;;;6.62;87.27
788;BME280;16074;42.708;23.312;2023-04-08T03:10:53;139911.28;;;6.63;88.10
788;BME280;16074;42.708;23.312;2023-04-08T03:13:21;139901.69;;;6.59;87.15
788;BME280;16074;42.708;23.312;2023-04-08T03:15:49;139916.09;;;6.65;87.21
788;BME280;16074;42.708;23.312;2023-04-08T03:18:18;139911.28;;;6.63;86.94
788;BME280;16074;42.708;23.312;2023-04-08T03:20:47;139893.28;;;6.56;87.44
788;BME280;16074;42.708;23.312;2023-04-08T03:23:16;139894.50;;;6.56;87.47
788;BME280;16074;42.708;23.312;2023-04-08T03:25:44;139890.88;;;6.55;87.73
788;BME280;16074;42.708;23.312;2023-04-08T03:28:12;139901.69;;;6.59;87.85
788;BME280;16074;42.708;23.312;2023-04-08T03:30:41;139899.28;;;6.58;88.10
788;BME280;16074;42.708;23.312;2023-04-08T03:33:09;139906.50;;;6.61;88.22
788;BME280;16074;42.708;23.312;2023-04-08T03:35:37;139911.28;;;6.63;88.73
788;BME280;16074;42.708;23.312;2023-04-08T03:38:07;139919.66;;;6.67;89.63
788;BME280;16074;42.708;23.312;2023-04-08T03:40:36;139919.66;;;6.67;89.39
788;BME280;16074;42.708;23.312;2023-04-08T03:43:04;139895.66;;;6.57;89.22
788;BME280;16074;42.708;23.312;2023-04-08T03:45:34;139892.09;;;6.55;88.55
788;BME280;16074;42.708;23.312;2023-04-08T03:48:03;139887.28;;;6.53;88.85
788;BME280;16074;42.708;23.312;2023-04-08T03:50:31;139882.50;;;6.51;89.13
788;BME280;16074;42.708;23.312;2023-04-08T03:52:59;139884.91;;;6.52;89.65
788;BME280;16074;42.708;23.312;2023-04-08T03:55:29;139889.69;;;6.54;89.73
788;BME280;16074;42.708;23.312;2023-04-08T03:57:58;139905.28;;;6.61;90.07
788;BME280;16074;42.708;23.312;2023-04-08T04:00:26;139901.69;;;6.59;90.79
788;BME280;16074;42.708;23.312;2023-04-08T04:02:54;139900.47;;;6.59;90.60
788;BME280;16074;42.708;23.312;2023-04-08T04:05:23;139907.66;;;6.62;89.42
788;BME280;16074;42.708;23.312;2023-04-08T04:07:51;139886.06;;;6.53;90.00
788;BME280;16074;42.708;23.312;2023-04-08T04:10:19;139875.28;;;6.48;90.24
788;BME280;16074;42.708;23.312;2023-04-08T04:12:50;139904.09;;;6.60;91.74
788;BME280;16074;42.708;23.312;2023-04-08T04:15:18;139893.28;;;6.56;91.73
788;BME280;16074;42.708;23.312;2023-04-08T04:17:46;139907.66;;;6.62;91.55
788;BME280;16074;42.708;23.312;2023-04-08T04:20:16;139918.50;;;6.66;92.65
788;BME280;16074;42.708;23.312;2023-04-08T04:22:44;139923.28;;;6.68;93.13
788;BME280;16074;42.708;23.312;2023-04-08T04:25:13;139914.88;;;6.65;92.62
788;BME280;16074;42.708;23.312;2023-04-08T04:27:41;139892.09;;;6.55;91.87
788;BME280;16074;42.708;23.312;2023-04-08T04:30:11;139914.88;;;6.65;91.69
788;BME280;16074;42.708;23.312;2023-04-08T04:32:41;139919.66;;;6.67;91.25
788;BME280;16074;42.708;23.312;2023-04-08T04:35:10;139911.28;;;6.63;92.12
788;BME280;16074;42.708;23.312;2023-04-08T04:37:38;139919.66;;;6.67;91.59
788;BME280;16074;42.708;23.312;2023-04-08T04:40:07;139914.88;;;6.65;91.58
788;BME280;16074;42.708;23.312;2023-04-08T04:42:35;139911.28;;;6.63;91.99
788;BME280;16074;42.708;23.312;2023-04-08T04:45:04;139871.72;;;6.47;91.74
788;BME280;16074;42.708;23.312;2023-04-08T04:47:34;139834.50;;;6.31;93.69
788;BME280;16074;42.708;23.312;2023-04-08T04:50:03;139829.72;;;6.29;93.38
788;BME280;16074;42.708;23.312;2023-04-08T04:52:33;139810.56;;;6.21;95.09
788;BME280;16074;42.708;23.312;2023-04-08T04:55:03;139798.56;;;6.16;95.87
788;BME280;16074;42.708;23.312;2023-04-08T04:57:31;139802.16;;;6.18;95.68
788;BME280;16074;42.708;23.312;2023-04-08T05:00:00;139794.94;;;6.15;95.76
788;BME280;16074;42.708;23.312;2023-04-08T05:02:31;139777.00;;;6.07;95.62
788;BME280;16074;42.708;23.312;2023-04-08T05:05:01;139773.38;;;6.06;96.02
788;BME280;16074;42.708;23.312;2023-04-08T05:07:29;139798.56;;;6.16;95.25
788;BME280;16074;42.708;23.312;2023-04-08T05:09:57;139824.91;;;6.27;95.38
788;BME280;16074;42.708;23.312;2023-04-08T05:12:26;139839.31;;;6.33;94.71
788;BME280;16074;42.708;23.312;2023-04-08T05:14:54;139859.72;;;6.42;94.58
788;BME280;16074;42.708;23.312;2023-04-08T05:17:22;139863.31;;;6.43;93.57
788;BME280;16074;42.708;23.312;2023-04-08T05:19:51;139864.53;;;6.44;92.89
788;BME280;16074;42.708;23.312;2023-04-08T05:22:21;139923.28;;;6.68;89.91
788;BME280;16074;42.708;23.312;2023-04-08T05:24:49;139936.47;;;6.74;90.43
788;BME280;16074;42.708;23.312;2023-04-08T05:27:17;139956.84;;;6.82;89.44
788;BME280;16074;42.708;23.312;2023-04-08T05:29:47;139952.03;;;6.80;88.42
788;BME280;16074;42.708;23.312;2023-04-08T05:32:16;139965.28;;;6.86;86.96
788;BME280;16074;42.708;23.312;2023-04-08T05:34:44;139977.28;;;6.91;85.82
788;BME280;16074;42.708;23.312;2023-04-08T05:37:12;139973.66;;;6.89;84.88
788;BME280;16074;42.708;23.312;2023-04-08T05:39:42;140002.47;;;7.01;83.31
788;BME280;16074;42.708;23.312;2023-04-08T05:42:10;140026.47;;;7.11;81.30
788;BME280;16074;42.708;23.312;2023-04-08T05:44:39;140064.88;;;7.27;80.77
788;BME280;16074;42.708;23.312;2023-04-08T05:47:10;140064.88;;;7.27;78.45
788;BME280;16074;42.708;23.312;2023-04-08T05:49:38;140070.88;;;7.29;80.19
788;BME280;16074;42.708;23.312;2023-04-08T05:52:07;140099.69;;;7.41;79.28
788;BME280;16074;42.708;23.312;2023-04-08T05:54:35;140123.72;;;7.51;79.31
788;BME280;16074;42.708;23.312;2023-04-08T05:57:05;140151.31;;;7.63;79.07
788;BME280;16074;42.708;23.312;2023-04-08T05:59:36;140176.50;;;7.73;78.50
788;BME280;16074;42.708;23.312;2023-04-08T06:02:04;140202.94;;;7.84;77.11
788;BME280;16074;42.708;23.312;2023-04-08T06:04:33;140223.38;;;7.93;76.77
788;BME280;16074;42.708;23.312;2023-04-08T06:07:01;140222.16;;;7.92;76.03
788;BME280;16074;42.708;23.312;2023-04-08T06:09:33;140267.81;;;8.11;75.58
788;BME280;16074;42.708;23.312;2023-04-08T06:12:02;140296.66;;;8.23;73.93
788;BME280;16074;42.708;23.312;2023-04-08T06:14:32;140302.69;;;8.26;74.49
788;BME280;16074;42.708;23.312;2023-04-08T06:17:00;140291.91;;;8.21;74.32
788;BME280;16074;42.708;23.312;2023-04-08T06:19:29;140294.25;;;8.22;74.39
788;BME280;16074;42.708;23.312;2023-04-08T06:21:58;140326.72;;;8.35;74.20
788;BME280;16074;42.708;23.312;2023-04-08T06:24:26;140307.50;;;8.27;74.39
788;BME280;16074;42.708;23.312;2023-04-08T06:26:55;140348.38;;;8.44;74.00
788;BME280;16074;42.708;23.312;2023-04-08T06:29:23;140371.19;;;8.54;74.32
788;BME280;16074;42.708;23.312;2023-04-08T06:31:53;140398.81;;;8.65;73.75
788;BME280;16074;42.708;23.312;2023-04-08T06:34:21;140389.19;;;8.61;73.55
788;BME280;16074;42.708;23.312;2023-04-08T06:36:49;140419.28;;;8.74;73.60
788;BME280;16074;42.708;23.312;2023-04-08T06:39:18;140420.44;;;8.74;74.44
788;BME280;16074;42.708;23.312;2023-04-08T06:41:47;140461.34;;;8.91;73.66
788;BME280;16074;42.708;23.312;2023-04-08T06:44:32;140475.75;;;8.97;73.20
788;BME280;16074;42.708;23.312;2023-04-08T06:47:01;140444.50;;;8.84;74.77
788;BME280;16074;42.708;23.312;2023-04-08T06:49:30;140445.69;;;8.85;74.56
788;BME280;16074;42.708;23.312;2023-04-08T06:51:58;140476.94;;;8.98;74.35
788;BME280;16074;42.708;23.312;2023-04-08T06:54:26;140481.75;;;9.00;73.77
788;BME280;16074;42.708;23.312;2023-04-08T06:56:55;140478.16;;;8.98;75.18
788;BME280;16074;42.708;23.312;2023-04-08T06:59:23;140485.38;;;9.01;73.89
788;BME280;16074;42.708;23.312;2023-04-08T07:01:51;140475.75;;;8.97;75.19
788;BME280;16074;42.708;23.312;2023-04-08T07:04:21;140493.78;;;9.05;75.19
788;BME280;16074;42.708;23.312;2023-04-08T07:06:49;140490.19;;;9.03;74.95
788;BME280;16074;42.708;23.312;2023-04-08T07:09:18;140509.41;;;9.11;74.83
788;BME280;16074;42.708;23.312;2023-04-08T07:11:46;140478.16;;;8.98;75.62
788;BME280;16074;42.708;23.312;2023-04-08T07:14:14;140507.00;;;9.10;74.26
788;BME280;16074;42.708;23.312;2023-04-08T07:16:42;140503.41;;;9.09;74.51
788;BME280;16074;42.708;23.312;2023-04-08T07:19:11;140540.66;;;9.24;74.56
788;BME280;16074;42.708;23.312;2023-04-08T07:21:40;140539.50;;;9.24;74.60
788;BME280;16074;42.708;23.312;2023-04-08T07:24:08;140558.75;;;9.32;73.51
788;BME280;16074;42.708;23.312;2023-04-08T07:26:37;140603.22;;;9.50;71.14
788;BME280;16074;42.708;23.312;2023-04-08T07:29:05;140615.25;;;9.55;71.73
788;BME280;16074;42.708;23.312;2023-04-08T07:31:33;140628.47;;;9.60;72.24
788;BME280;16074;42.708;23.312;2023-04-08T07:34:02;140651.31;;;9.70;72.72
788;BME280;16074;42.708;23.312;2023-04-08T07:36:30;140676.63;;;9.80;71.90
788;BME280;16074;42.708;23.312;2023-04-08T07:39:00;140670.56;;;9.78;71.72
788;BME280;16074;42.708;23.312;2023-04-08T07:41:28;140723.59;;;10.00;71.23
788;BME280;16074;42.708;23.312;2023-04-08T07:43:56;140706.69;;;9.93;71.21
788;BME280;16074;42.708;23.312;2023-04-08T07:46:25;140764.53;;;10.17;70.73
788;BME280;16074;42.708;23.312;2023-04-08T07:48:53;140788.56;;;10.27;70.45
788;BME280;16074;42.708;23.312;2023-04-08T07:51:21;140841.53;;;10.49;69.42
788;BME280;16074;42.708;23.312;2023-04-08T07:53:50;140874.03;;;10.62;69.43
788;BME280;16074;42.708;23.312;2023-04-08T07:56:19;140886.09;;;10.67;67.33
788;BME280;16074;42.708;23.312;2023-04-08T07:58:48;140899.38;;;10.72;68.05
788;BME280;16074;42.708;23.312;2023-04-08T08:01:20;140936.69;;;10.88;68.47
788;BME280;16074;42.708;23.312;2023-04-08T08:03:50;140968.00;;;11.01;67.42
788;BME280;16074;42.708;23.312;2023-04-08T08:06:19;140971.59;;;11.02;67.61
788;BME280;16074;42.708;23.312;2023-04-08T08:08:48;141010.16;;;11.18;67.07
788;BME280;16074;42.708;23.312;2023-04-08T08:11:16;141015.00;;;11.20;67.19
788;BME280;16074;42.708;23.312;2023-04-08T08:13:46;141045.09;;;11.33;66.00
788;BME280;16074;42.708;23.312;2023-04-08T08:16:14;140999.31;;;11.14;65.31
788;BME280;16074;42.708;23.312;2023-04-08T08:18:43;141004.13;;;11.16;65.64
788;BME280;16074;42.708;23.312;2023-04-08T08:21:11;141047.50;;;11.34;64.79
788;BME280;16074;42.708;23.312;2023-04-08T08:23:39;141034.28;;;11.28;64.68
788;BME280;16074;42.708;23.312;2023-04-08T08:26:08;141042.69;;;11.32;65.26
788;BME280;16074;42.708;23.312;2023-04-08T08:28:38;141021.00;;;11.23;64.32
788;BME280;16074;42.708;23.312;2023-04-08T08:31:07;141046.28;;;11.33;64.53
788;BME280;16074;42.708;23.312;2023-04-08T08:33:36;141103.00;;;11.57;63.84
788;BME280;16074;42.708;23.312;2023-04-08T08:36:04;141152.44;;;11.77;62.37
788;BME280;16074;42.708;23.312;2023-04-08T08:38:33;141143.97;;;11.74;62.81
788;BME280;16074;42.708;23.312;2023-04-08T08:41:01;141169.31;;;11.84;61.30
788;BME280;16074;42.708;23.312;2023-04-08T08:43:30;141139.13;;;11.72;61.41
788;BME280;16074;42.708;23.312;2023-04-08T08:46:00;141148.78;;;11.76;61.52
788;BME280;16074;42.708;23.312;2023-04-08T08:48:31;141139.13;;;11.72;62.31
788;BME280;16074;42.708;23.312;2023-04-08T08:51:00;141157.25;;;11.79;62.58
788;BME280;16074;42.708;23.312;2023-04-08T08:53:29;141147.59;;;11.75;62.18
788;BME280;16074;42.708;23.312;2023-04-08T08:56:01;141192.19;;;11.93;63.03
788;BME280;16074;42.708;23.312;2023-04-08T08:58:33;141201.84;;;11.97;62.34
788;BME280;16074;42.708;23.312;2023-04-08T09:01:01;141194.59;;;11.94;61.74
788;BME280;16074;42.708;23.312;2023-04-08T09:03:31;141192.19;;;11.93;61.56
788;BME280;16074;42.708;23.312;2023-04-08T09:06:01;141193.38;;;11.94;61.65
788;BME280;16074;42.708;23.312;2023-04-08T09:08:30;141234.38;;;12.11;61.45
788;BME280;16074;42.708;23.312;2023-04-08T09:11:14;141250.09;;;12.17;61.09
788;BME280;16074;42.708;23.312;2023-04-08T09:13:44;141270.59;;;12.26;60.52
788;BME280;16074;42.708;23.312;2023-04-08T09:16:14;141270.59;;;12.26;61.21
788;BME280;16074;42.708;23.312;2023-04-08T09:18:46;141281.41;;;12.30;60.48
788;BME280;16074;42.708;23.312;2023-04-08T09:21:16;141340.50;;;12.55;58.85
788;BME280;16074;42.708;23.312;2023-04-08T09:23:46;141291.06;;;12.34;60.00
788;BME280;16074;42.708;23.312;2023-04-08T09:26:17;141352.56;;;12.60;59.79
788;BME280;16074;42.708;23.312;2023-04-08T09:28:57;141399.63;;;12.79;59.31
788;BME280;16074;42.708;23.312;2023-04-08T09:31:35;141492.59;;;13.17;57.83
788;BME280;16074;42.708;23.312;2023-04-08T09:34:11;141578.31;;;13.53;57.58
788;BME280;16074;42.708;23.312;2023-04-08T09:36:40;141639.91;;;13.78;56.38
788;BME280;16074;42.708;23.312;2023-04-08T09:39:10;141737.81;;;14.19;55.44
788;BME280;16074;42.708;23.312;2023-04-08T09:41:39;141847.78;;;14.64;55.28
788;BME280;16074;42.708;23.312;2023-04-08T09:44:09;141952.91;;;15.07;52.53
788;BME280;16074;42.708;23.312;2023-04-08T09:46:39;142021.88;;;15.36;51.32
788;BME280;16074;42.708;23.312;2023-04-08T09:49:22;142083.56;;;15.61;50.67
788;BME280;16074;42.708;23.312;2023-04-08T09:51:58;142162.22;;;15.93;49.70
788;BME280;16074;42.708;23.312;2023-04-08T09:54:38;142238.47;;;16.25;49.09
788;BME280;16074;42.708;23.312;2023-04-08T09:57:12;142301.47;;;16.51;48.70
788;BME280;16074;42.708;23.312;2023-04-08T09:59:47;142317.22;;;16.57;47.39
788;BME280;16074;42.708;23.312;2023-04-08T10:02:22;142325.72;;;16.61;46.52
788;BME280;16074;42.708;23.312;2023-04-08T10:04:54;142322.06;;;16.59;46.14
788;BME280;16074;42.708;23.312;2023-04-08T10:07:26;142313.59;;;16.56;46.34
788;BME280;16074;42.708;23.312;2023-04-08T10:09:54;142309.94;;;16.54;45.73
788;BME280;16074;42.708;23.312;2023-04-08T10:12:24;142329.31;;;16.62;45.16
788;BME280;16074;42.708;23.312;2023-04-08T10:15:23;142376.53;;;16.81;45.31
788;BME280;16074;42.708;23.312;2023-04-08T10:17:52;142365.66;;;16.77;44.73
788;BME280;16074;42.708;23.312;2023-04-08T10:20:42;142392.31;;;16.88;45.00
788;BME280;16074;42.708;23.312;2023-04-08T10:23:12;142438.28;;;17.07;44.97
788;BME280;16074;42.708;23.312;2023-04-08T10:25:41;142341.44;;;16.67;45.31
788;BME280;16074;42.708;23.312;2023-04-08T10:28:24;142417.72;;;16.98;44.66
788;BME280;16074;42.708;23.312;2023-04-08T10:30:54;142458.94;;;17.15;44.43
788;BME280;16074;42.708;23.312;2023-04-08T10:33:23;142429.84;;;17.03;43.95
788;BME280;16074;42.708;23.312;2023-04-08T10:36:07;142400.75;;;16.91;43.86
788;BME280;16074;42.708;23.312;2023-04-08T10:38:37;142433.44;;;17.05;44.55
788;BME280;16074;42.708;23.312;2023-04-08T10:41:05;142387.47;;;16.86;44.16
788;BME280;16074;42.708;23.312;2023-04-08T10:43:35;142307.50;;;16.53;44.94
788;BME280;16074;42.708;23.312;2023-04-08T10:46:03;142230.00;;;16.21;45.33
788;BME280;16074;42.708;23.312;2023-04-08T10:48:32;142161.03;;;15.93;46.38
788;BME280;16074;42.708;23.312;2023-04-08T10:51:03;142156.19;;;15.91;45.85
788;BME280;16074;42.708;23.312;2023-04-08T10:53:32;142162.22;;;15.93;46.18
788;BME280;16074;42.708;23.312;2023-04-08T10:56:05;142124.72;;;15.78;46.01
788;BME280;16074;42.708;23.312;2023-04-08T10:58:34;142100.53;;;15.68;47.01
788;BME280;16074;42.708;23.312;2023-04-08T11:01:03;142110.19;;;15.72;46.01
788;BME280;16074;42.708;23.312;2023-04-08T11:03:33;142005.00;;;15.29;45.99
788;BME280;16074;42.708;23.312;2023-04-08T11:06:03;142049.75;;;15.47;46.30
788;BME280;16074;42.708;23.312;2023-04-08T11:08:34;142123.53;;;15.77;45.84
788;BME280;16074;42.708;23.312;2023-04-08T11:11:04;142147.69;;;15.87;45.62
788;BME280;16074;42.708;23.312;2023-04-08T11:13:35;142185.25;;;16.03;44.37
788;BME280;16074;42.708;23.312;2023-04-08T11:16:05;142124.72;;;15.78;45.32
788;BME280;16074;42.708;23.312;2023-04-08T11:18:44;142130.81;;;15.80;45.92
788;BME280;16074;42.708;23.312;2023-04-08T11:21:15;142089.66;;;15.63;46.27
788;BME280;16074;42.708;23.312;2023-04-08T11:23:44;142077.56;;;15.58;46.37
788;BME280;16074;42.708;23.312;2023-04-08T11:26:12;142036.41;;;15.42;46.59
788;BME280;16074;42.708;23.312;2023-04-08T11:28:42;142145.28;;;15.86;46.46
788;BME280;16074;42.708;23.312;2023-04-08T11:31:11;142213.06;;;16.14;45.87
788;BME280;16074;42.708;23.312;2023-04-08T11:33:44;142336.59;;;16.65;45.84
788;BME280;16074;42.708;23.312;2023-04-08T11:36:16;142437.13;;;17.06;43.30
788;BME280;16074;42.708;23.312;2023-04-08T11:38:44;142508.63;;;17.36;41.76
788;BME280;16074;42.708;23.312;2023-04-08T11:41:14;142503.78;;;17.34;41.21
788;BME280;16074;42.708;23.312;2023-04-08T11:43:53;142455.25;;;17.14;42.07
788;BME280;16074;42.708;23.312;2023-04-08T11:46:22;142480.72;;;17.24;40.66
788;BME280;16074;42.708;23.312;2023-04-08T11:49:03;142496.47;;;17.31;40.98
788;BME280;16074;42.708;23.312;2023-04-08T11:51:34;142541.34;;;17.49;40.75
788;BME280;16074;42.708;23.312;2023-04-08T11:54:04;142490.38;;;17.28;40.46
788;BME280;16074;42.708;23.312;2023-04-08T11:56:43;142466.19;;;17.18;40.81
788;BME280;16074;42.708;23.312;2023-04-08T11:59:13;142457.69;;;17.15;40.72
788;BME280;16074;42.708;23.312;2023-04-08T12:01:41;142409.28;;;16.95;40.75
788;BME280;16074;42.708;23.312;2023-04-08T12:04:09;142324.47;;;16.60;41.50
788;BME280;16074;42.708;23.312;2023-04-08T12:06:39;142295.41;;;16.48;41.10
788;BME280;16074;42.708;23.312;2023-04-08T12:09:09;142216.69;;;16.16;42.38
788;BME280;16074;42.708;23.312;2023-04-08T12:11:37;142135.63;;;15.82;42.57
788;BME280;16074;42.708;23.312;2023-04-08T12:14:05;142019.47;;;15.35;43.72
788;BME280;16074;42.708;23.312;2023-04-08T12:16:34;142009.78;;;15.31;43.17
788;BME280;16074;42.708;23.312;2023-04-08T12:19:03;141963.81;;;15.12;44.43
788;BME280;16074;42.708;23.312;2023-04-08T12:21:31;141879.16;;;14.77;45.06
788;BME280;16074;42.708;23.312;2023-04-08T12:24:02;141853.81;;;14.66;45.76
788;BME280;16074;42.708;23.312;2023-04-08T12:26:30;141859.88;;;14.69;45.83
788;BME280;16074;42.708;23.312;2023-04-08T12:28:58;141790.97;;;14.40;44.92
788;BME280;16074;42.708;23.312;2023-04-08T12:31:27;141775.25;;;14.34;46.19
788;BME280;16074;42.708;23.312;2023-04-08T12:33:55;141813.94;;;14.50;45.91
788;BME280;16074;42.708;23.312;2023-04-08T12:36:24;141919.09;;;14.93;45.03
788;BME280;16074;42.708;23.312;2023-04-08T12:38:53;142063.03;;;15.52;43.77
788;BME280;16074;42.708;23.312;2023-04-08T12:41:22;142050.94;;;15.48;43.99
788;BME280;16074;42.708;23.312;2023-04-08T12:43:51;142020.72;;;15.35;43.81
788;BME280;16074;42.708;23.312;2023-04-08T12:46:19;141975.91;;;15.17;43.79
788;BME280;16074;42.708;23.312;2023-04-08T12:48:47;141962.59;;;15.11;44.22
788;BME280;16074;42.708;23.312;2023-04-08T12:51:29;141900.94;;;14.86;45.21
788;BME280;16074;42.708;23.312;2023-04-08T12:53:58;141830.84;;;14.57;45.84
788;BME280;16074;42.708;23.312;2023-04-08T12:56:29;141781.31;;;14.36;46.57
788;BME280;16074;42.708;23.312;2023-04-08T12:58:57;141680.97;;;13.95;48.04
788;BME280;16074;42.708;23.312;2023-04-08T13:01:26;141626.63;;;13.73;49.28
788;BME280;16074;42.708;23.312;2023-04-08T13:03:56;141543.31;;;13.38;50.14
788;BME280;16074;42.708;23.312;2023-04-08T13:06:25;141510.75;;;13.25;51.17
788;BME280;16074;42.708;23.312;2023-04-08T13:08:54;141426.19;;;12.90;52.29
788;BME280;16074;42.708;23.312;2023-04-08T13:11:22;141440.72;;;12.96;52.34
788;BME280;16074;42.708;23.312;2023-04-08T13:13:52;141425.00;;;12.90;52.56
788;BME280;16074;42.708;23.312;2023-04-08T13:16:20;141438.31;;;12.95;53.25
788;BME280;16074;42.708;23.312;2023-04-08T13:18:48;141472.09;;;13.09;54.51
788;BME280;16074;42.708;23.312;2023-04-08T13:21:18;141596.41;;;13.60;53.82